Portada
METAR-TAF:

METAR-TAF

Aeroports :

Munda, New Georgia, Illes Salomó

latitud: 8-19-41S, longitud: 157-15-47E, altitud: 3 m

Observació

L'informe es va fer fa 13 hores i 20 minuts, a les 03:00 UTC
Vent 7 kt del Est/Sud-Est
Temperatura 29°C
Humitat 74%
Pressió 1007 hPa
Visibilitat 10 km o més
Escasses núvols a una alçada de 1800 ft
Núvols disperses a una alçada de 10000 ft

METAR: AGGM 160300Z 11007KT 9999 FEW018 SCT100 29/24 Q1007

Hora: 03:20 (16:20 UTC)

Pronòstic

L'informe es va fer fa 5 hores i 20 minuts, a les 11:00 UTC
Pronòstic vàlid del 16 a les 12 UTC al 17 a les 12 UTC
Vent 10 kt del Est
Visibilitat 10 km o més
Escasses núvols a una alçada de 1700 ft
Cel ennuvolat a una alçada de 10000 ft
Probabilitat 30%
entre IN i TE UTC
Visibilitat: 1009 m
Núvols disperses a una alçada de 1600 ft
Cel ennuvolat a una alçada de 2800 ft
xàfecs de pluja

TAF: AGGM 161100Z 1612/1712 09010KT 9999 FEW017 BKN100 PROB30 INTER 1612/1618 5000 SHRA SCT016 BKN028 Q 1010 1008 1007 1009

Observacions i pronòstics meteorològics de més de 4000 aeroports (METAR i TAF).

Les estacions disponibles són els punts grocs i vermells al mapa.

Posi el ratolí al punt desitjat per veure el nom de l'estació.

Feu clic per veure les observacions i els pronòstics meteorològics.

Per canviar el mapa: feu clic els botons verds amb una creu de color negre per apropar; al botó verd amb un guió per allunyar la imatge; o en les fletxes verdes per a mapes adjacents.


METAR-TAF: